Back to Top

Language: 

My Weather Underground Personal Weather Station Historical Data with Graphs...

Delerius Weather Station Historical Data
Daily Summary for September 18, 2017 Units:  English    Metric   Both
« Previous Day
Next Day »
Daily Weekly Monthly Yearly Custom
  High: Low: Average:
Temperature: 60.1 °F 47.1 °F 52.7 °F
Dew Point: 51.7 °F 45.8 °F 49.4 °F
Humidity: 95 % 65 % 89 %
Wind Speed: 8.0 mph 0.0 mph 3.7 mph
Wind Gust: 14.0 mph - -
Wind:- - WNW
Pressure: 30.12 in 30.03 in -
Precipitation: 0.12 in    
Historical Graphs
 
 
Tabular Data for September 18, 2017
Time Temperature Dew Point Pressure Wind Wind Speed Wind Gust Humidity Rainfall Rate (Hourly) solar Conditions
00:00 52.7 °F 51.3 °F 30.03 in NW 3.0 mph 7.0 mph 95 % 0.00 in 0 W/m2
00:05 52.5 °F 51.1 °F 30.04 in NW 3.0 mph 7.0 mph 95 % 0.00 in 0 W/m2
00:10 52.5 °F 51.1 °F 30.04 in NW 2.0 mph 6.0 mph 95 % 0.00 in 0 W/m2
00:15 52.3 °F 50.7 °F 30.04 in NW 2.0 mph 5.0 mph 94 % 0.00 in 0 W/m2
00:20 52.2 °F 50.5 °F 30.04 in NW 2.0 mph 6.0 mph 94 % 0.00 in 0 W/m2
00:25 52.2 °F 50.8 °F 30.04 in NW 2.0 mph 7.0 mph 95 % 0.00 in 0 W/m2
00:35 52.2 °F 50.8 °F 30.04 in NW 3.0 mph 7.0 mph 95 % 0.00 in 0 W/m2
00:41 52.3 °F 51.0 °F 30.04 in NW 3.0 mph 7.0 mph 95 % 0.00 in 0 W/m2
00:46 52.3 °F 51.0 °F 30.04 in NNW 3.0 mph 7.0 mph 95 % 0.00 in 0 W/m2
00:51 52.3 °F 51.0 °F 30.04 in NNW 5.0 mph 9.0 mph 95 % 0.00 in 0 W/m2
00:56 52.3 °F 51.0 °F 30.04 in NNW 5.0 mph 10.0 mph 95 % 0.00 in 0 W/m2
01:01 52.3 °F 51.0 °F 30.04 in NNW 4.0 mph 10.0 mph 95 % 0.00 in 0 W/m2
01:06 52.2 °F 50.8 °F 30.04 in NNW 3.0 mph 8.0 mph 95 % 0.00 in 0 W/m2
01:11 52.2 °F 50.8 °F 30.03 in NW 3.0 mph 7.0 mph 95 % 0.00 in 0 W/m2
01:16 52.2 °F 50.8 °F 30.03 in WNW 3.0 mph 7.0 mph 95 % 0.00 in 0 W/m2
01:21 52.2 °F 50.8 °F 30.04 in WNW 2.0 mph 6.0 mph 95 % 0.00 in 0 W/m2
01:26 52.2 °F 50.8 °F 30.04 in NW 2.0 mph 7.0 mph 95 % 0.00 in 0 W/m2
01:31 52.2 °F 50.8 °F 30.04 in NW 2.0 mph 7.0 mph 95 % 0.00 in 0 W/m2
01:36 52.3 °F 51.0 °F 30.04 in NW 3.0 mph 7.0 mph 95 % 0.00 in 0 W/m2
01:41 52.3 °F 51.0 °F 30.04 in NW 3.0 mph 7.0 mph 95 % 0.00 in 0 W/m2
01:46 52.3 °F 51.0 °F 30.04 in NW 3.0 mph 7.0 mph 95 % 0.00 in 0 W/m2
01:51 52.2 °F 50.8 °F 30.04 in NW 3.0 mph 6.0 mph 95 % 0.00 in 0 W/m2
01:56 52.2 °F 50.8 °F 30.04 in NW 4.0 mph 9.0 mph 95 % 0.00 in 0 W/m2
02:07 52.3 °F 51.0 °F 30.04 in NW 3.0 mph 7.0 mph 95 % 0.00 in 0 W/m2
02:12 52.2 °F 50.8 °F 30.04 in NW 4.0 mph 8.0 mph 95 % 0.00 in 0 W/m2
02:17 52.3 °F 51.0 °F 30.03 in NW 4.0 mph 8.0 mph 95 % 0.00 in 0 W/m2
02:22 52.3 °F 51.0 °F 30.03 in NW 3.0 mph 7.0 mph 95 % 0.00 in 0 W/m2
02:27 52.2 °F 50.8 °F 30.03 in NW 3.0 mph 9.0 mph 95 % 0.00 in 0 W/m2
02:32 52.2 °F 50.8 °F 30.03 in NW 4.0 mph 9.0 mph 95 % 0.00 in 0 W/m2
02:37 52.2 °F 50.8 °F 30.03 in NW 4.0 mph 8.0 mph 95 % 0.00 in 0 W/m2
02:42 52.2 °F 50.8 °F 30.03 in NW 5.0 mph 8.0 mph 95 % 0.00 in 0 W/m2
02:47 52.2 °F 50.8 °F 30.03 in NW 4.0 mph 10.0 mph 95 % 0.00 in 0 W/m2
02:52 52.2 °F 50.8 °F 30.03 in NW 4.0 mph 10.0 mph 95 % 0.00 in 0 W/m2
02:57 52.0 °F 50.6 °F 30.03 in WNW 4.0 mph 8.0 mph 95 % 0.00 in 0 W/m2
03:02 51.8 °F 50.1 °F 30.03 in NW 4.0 mph 7.0 mph 94 % 0.00 in 0 W/m2
03:07 51.6 °F 49.9 °F 30.03 in NW 4.0 mph 7.0 mph 94 % 0.00 in 0 W/m2
03:12 51.6 °F 49.9 °F 30.03 in NW 4.0 mph 9.0 mph 94 % 0.00 in 0 W/m2
03:17 51.6 °F 49.9 °F 30.03 in NW 4.0 mph 9.0 mph 94 % 0.00 in 0 W/m2
03:22 51.4 °F 50.1 °F 30.03 in NW 4.0 mph 9.0 mph 95 % 0.00 in 0 W/m2
03:27 51.4 °F 50.1 °F 30.03 in NW 4.0 mph 9.0 mph 95 % 0.00 in 0 W/m2
03:32 51.4 °F 50.1 °F 30.03 in NW 3.0 mph 7.0 mph 95 % 0.00 in 0 W/m2
03:37 51.4 °F 50.1 °F 30.03 in NW 4.0 mph 9.0 mph 95 % 0.00 in 0 W/m2
03:42 51.4 °F 50.1 °F 30.03 in NW 4.0 mph 9.0 mph 95 % 0.00 in 0 W/m2
03:47 51.4 °F 50.1 °F 30.03 in NW 5.0 mph 11.0 mph 95 % 0.00 in 0 W/m2
03:52 51.6 °F 50.2 °F 30.03 in NW 6.0 mph 11.0 mph 95 % 0.00 in 0 W/m2
03:57 51.6 °F 50.2 °F 30.03 in NW 6.0 mph 12.0 mph 95 % 0.00 in 0 W/m2
04:02 51.6 °F 50.2 °F 30.03 in NW 7.0 mph 13.0 mph 95 % 0.00 in 0 W/m2
04:07 51.6 °F 49.9 °F 30.03 in NNW 6.0 mph 13.0 mph 94 % 0.00 in 0 W/m2
04:12 51.6 °F 49.9 °F 30.03 in NW 5.0 mph 9.0 mph 94 % 0.00 in 0 W/m2
04:18 51.6 °F 49.9 °F 30.03 in NW 5.0 mph 8.0 mph 94 % 0.00 in 0 W/m2
04:20 51.6 °F 49.9 °F 30.03 in NW 5.0 mph 12.0 mph 94 % 0.00 in 0 W/m2
04:25 51.6 °F 49.9 °F 30.03 in NW 4.0 mph 12.0 mph 94 % 0.00 in 0 W/m2
04:26 51.6 °F 49.9 °F 30.03 in NW 4.0 mph 12.0 mph 94 % 0.00 in 0 W/m2
04:30 51.6 °F 49.9 °F 30.03 in NW 4.0 mph 10.0 mph 94 % 0.00 in 0 W/m2
04:35 51.6 °F 49.9 °F 30.04 in NW 6.0 mph 11.0 mph 94 % 0.00 in 0 W/m2
04:40 51.8 °F 50.1 °F 30.04 in NW 6.0 mph 12.0 mph 94 % 0.00 in 0 W/m2
04:45 51.8 °F 50.1 °F 30.04 in NNW 6.0 mph 13.0 mph 94 % 0.00 in 0 W/m2
04:50 51.8 °F 50.1 °F 30.04 in NNW 5.0 mph 13.0 mph 94 % 0.00 in 0 W/m2
04:55 51.8 °F 50.1 °F 30.04 in NNW 5.0 mph 9.0 mph 94 % 0.00 in 0 W/m2
05:00 51.6 °F 49.9 °F 30.04 in NNW 5.0 mph 9.0 mph 94 % 0.00 in 0 W/m2
05:05 51.6 °F 49.7 °F 30.04 in NNW 5.0 mph 11.0 mph 93 % 0.00 in 0 W/m2
05:10 51.4 °F 49.5 °F 30.04 in NNW 5.0 mph 11.0 mph 93 % 0.00 in 0 W/m2
05:15 51.4 °F 49.5 °F 30.04 in NNW 4.0 mph 9.0 mph 93 % 0.00 in 0 W/m2
05:20 51.3 °F 49.3 °F 30.04 in NNW 5.0 mph 11.0 mph 93 % 0.00 in 0 W/m2
05:25 51.1 °F 49.1 °F 30.04 in NW 5.0 mph 11.0 mph 93 % 0.00 in 0 W/m2
05:30 50.9 °F 48.9 °F 30.04 in NW 5.0 mph 9.0 mph 93 % 0.00 in 0 W/m2
05:35 50.7 °F 48.8 °F 30.04 in NNW 5.0 mph 9.0 mph 93 % 0.00 in 0 W/m2
05:40 50.7 °F 48.8 °F 30.04 in NNW 4.0 mph 8.0 mph 93 % 0.00 in 0 W/m2
05:45 50.5 °F 48.6 °F 30.04 in NW 4.0 mph 8.0 mph 93 % 0.00 in 0 W/m2
05:50 50.4 °F 48.4 °F 30.04 in NW 4.0 mph 8.0 mph 93 % 0.00 in 0 W/m2
05:55 50.4 °F 48.4 °F 30.05 in NW 4.0 mph 9.0 mph 93 % 0.00 in 0 W/m2
06:00 50.4 °F 48.7 °F 30.05 in NW 4.0 mph 9.0 mph 94 % 0.00 in 0 W/m2
06:05 50.4 °F 48.7 °F 30.04 in NW 4.0 mph 9.0 mph 94 % 0.00 in 0 W/m2
06:10 50.4 °F 48.7 °F 30.04 in NW 4.0 mph 8.0 mph 94 % 0.00 in 0 W/m2
06:15 50.2 °F 48.5 °F 30.04 in NW 5.0 mph 9.0 mph 94 % 0.00 in 0 W/m2
06:20 50.2 °F 48.5 °F 30.04 in NW 4.0 mph 9.0 mph 94 % 0.00 in 0 W/m2
06:25 50.0 °F 48.3 °F 30.05 in NW 3.0 mph 7.0 mph 94 % 0.00 in 0 W/m2
06:30 49.8 °F 48.2 °F 30.05 in NW 3.0 mph 8.0 mph 94 % 0.00 in 0 W/m2
06:35 49.8 °F 48.2 °F 30.05 in WNW 3.0 mph 8.0 mph 94 % 0.00 in 0 W/m2
06:40 49.6 °F 48.0 °F 30.05 in WNW 2.0 mph 7.0 mph 94 % 0.00 in 0 W/m2
06:45 49.6 °F 48.0 °F 30.05 in WNW 2.0 mph 5.0 mph 94 % 0.00 in 0 W/m2
06:50 49.6 °F 48.0 °F 30.05 in NW 2.0 mph 6.0 mph 94 % 0.00 in 5 W/m2
06:55 49.6 °F 48.0 °F 30.05 in WNW 3.0 mph 7.0 mph 94 % 0.00 in 5 W/m2
07:00 49.6 °F 48.0 °F 30.05 in WNW 4.0 mph 7.0 mph 94 % 0.00 in 7 W/m2
07:05 49.6 °F 48.0 °F 30.05 in NW 4.0 mph 9.0 mph 94 % 0.00 in 11 W/m2
07:10 49.8 °F 48.2 °F 30.06 in NW 5.0 mph 9.0 mph 94 % 0.00 in 16 W/m2
07:15 49.8 °F 48.2 °F 30.06 in NW 5.0 mph 9.0 mph 94 % 0.00 in 18 W/m2
07:20 49.8 °F 48.2 °F 30.06 in NW 3.0 mph 8.0 mph 94 % 0.00 in 19 W/m2
07:26 50.0 °F 48.3 °F 30.06 in WNW 2.0 mph 9.0 mph 94 % 0.00 in 23 W/m2
07:31 50.2 °F 48.5 °F 30.06 in WNW 4.0 mph 9.0 mph 94 % 0.00 in 32 W/m2
07:36 50.2 °F 48.5 °F 30.06 in WNW 4.0 mph 8.0 mph 94 % 0.00 in 46 W/m2
07:41 50.4 °F 48.7 °F 30.06 in WNW 5.0 mph 9.0 mph 94 % 0.00 in 70 W/m2
07:46 50.5 °F 48.9 °F 30.07 in WNW 5.0 mph 9.0 mph 94 % 0.00 in 77 W/m2
07:51 50.7 °F 49.1 °F 30.07 in WNW 5.0 mph 8.0 mph 94 % 0.00 in 146 W/m2
07:56 50.9 °F 49.2 °F 30.07 in WNW 5.0 mph 11.0 mph 94 % 0.00 in 216 W/m2
08:01 51.3 °F 49.6 °F 30.07 in WNW 6.0 mph 11.0 mph 94 % 0.00 in 243 W/m2
08:06 52.0 °F 50.0 °F 30.07 in NW 6.0 mph 14.0 mph 93 % 0.00 in 218 W/m2
08:11 52.3 °F 50.1 °F 30.07 in NW 6.0 mph 14.0 mph 92 % 0.00 in 276 W/m2
08:16 52.9 °F 50.3 °F 30.07 in NW 7.0 mph 12.0 mph 91 % 0.00 in 163 W/m2
08:21 53.1 °F 49.9 °F 30.07 in NW 8.0 mph 14.0 mph 89 % 0.00 in 299 W/m2
08:26 53.4 °F 50.3 °F 30.07 in NW 7.0 mph 14.0 mph 89 % 0.00 in 188 W/m2
08:31 53.6 °F 50.1 °F 30.07 in NW 6.0 mph 12.0 mph 88 % 0.00 in 181 W/m2
08:36 53.6 °F 50.1 °F 30.07 in NW 6.0 mph 11.0 mph 88 % 0.00 in 186 W/m2
08:41 54.0 °F 50.5 °F 30.07 in NW 5.0 mph 10.0 mph 88 % 0.00 in 348 W/m2
08:46 54.3 °F 50.5 °F 30.07 in NW 6.0 mph 13.0 mph 87 % 0.00 in 360 W/m2
08:51 54.9 °F 50.8 °F 30.07 in NW 7.0 mph 13.0 mph 86 % 0.00 in 185 W/m2
08:56 55.0 °F 50.3 °F 30.07 in NW 7.0 mph 13.0 mph 84 % 0.00 in 174 W/m2
09:01 54.9 °F 49.8 °F 30.07 in NW 6.0 mph 13.0 mph 83 % 0.00 in 155 W/m2
09:06 54.7 °F 49.9 °F 30.07 in NW 6.0 mph 12.0 mph 84 % 0.00 in 162 W/m2
09:11 54.3 °F 49.6 °F 30.07 in NW 7.0 mph 12.0 mph 84 % 0.00 in 271 W/m2
09:16 54.5 °F 49.8 °F 30.07 in NW 7.0 mph 12.0 mph 84 % 0.00 in 383 W/m2
09:21 54.7 °F 49.9 °F 30.07 in NNW 8.0 mph 14.0 mph 84 % 0.00 in 387 W/m2
09:26 55.0 °F 50.6 °F 30.07 in NNW 6.0 mph 14.0 mph 85 % 0.00 in 483 W/m2
09:31 55.6 °F 50.5 °F 30.07 in NNW 5.0 mph 11.0 mph 83 % 0.00 in 311 W/m2
09:36 55.8 °F 50.3 °F 30.07 in NNW 5.0 mph 12.0 mph 82 % 0.00 in 329 W/m2
09:41 55.9 °F 50.5 °F 30.07 in NNW 7.0 mph 12.0 mph 82 % 0.00 in 401 W/m2
09:46 56.1 °F 50.7 °F 30.07 in NNW 7.0 mph 12.0 mph 82 % 0.00 in 353 W/m2
09:51 56.1 °F 50.0 °F 30.07 in NNW 6.0 mph 12.0 mph 80 % 0.00 in 397 W/m2
09:53 56.3 °F 50.2 °F 30.07 in NNW 7.0 mph 12.0 mph 80 % 0.00 in 320 W/m2
09:58 56.5 °F 50.4 °F 30.07 in NNW 6.0 mph 11.0 mph 80 % 0.00 in 401 W/m2
10:03 56.5 °F 50.0 °F 30.07 in NNW 7.0 mph 13.0 mph 79 % 0.00 in 396 W/m2
10:08 56.5 °F 50.0 °F 30.07 in NNW 7.0 mph 13.0 mph 79 % 0.00 in 248 W/m2
10:14 56.3 °F 49.9 °F 30.07 in NNW 7.0 mph 13.0 mph 79 % 0.00 in 223 W/m2
10:19 56.1 °F 49.7 °F 30.07 in NNW 6.0 mph 13.0 mph 79 % 0.00 in 223 W/m2
10:24 55.9 °F 49.5 °F 30.07 in NNW 6.0 mph 13.0 mph 79 % 0.00 in 220 W/m2
10:29 55.8 °F 49.0 °F 30.07 in NNW 7.0 mph 13.0 mph 78 % 0.00 in 227 W/m2
10:34 55.8 °F 49.3 °F 30.07 in NNW 7.0 mph 12.0 mph 79 % 0.00 in 236 W/m2
10:39 55.6 °F 49.2 °F 30.06 in NNW 6.0 mph 12.0 mph 79 % 0.00 in 229 W/m2
10:44 55.6 °F 48.8 °F 30.07 in NNW 5.0 mph 12.0 mph 78 % 0.00 in 265 W/m2
10:49 55.6 °F 49.2 °F 30.07 in North 6.0 mph 12.0 mph 79 % 0.00 in 432 W/m2
10:54 55.8 °F 49.3 °F 30.07 in NNW 5.0 mph 12.0 mph 79 % 0.00 in 302 W/m2
10:59 55.9 °F 49.2 °F 30.07 in NNW 6.0 mph 11.0 mph 78 % 0.00 in 380 W/m2
11:04 56.1 °F 49.0 °F 30.07 in NNW 7.0 mph 12.0 mph 77 % 0.00 in 350 W/m2
11:09 56.3 °F 49.2 °F 30.07 in NNW 7.0 mph 13.0 mph 77 % 0.00 in 415 W/m2
11:14 56.5 °F 49.7 °F 30.06 in NNW 6.0 mph 13.0 mph 78 % 0.00 in 399 W/m2
11:19 56.8 °F 49.4 °F 30.07 in NNW 6.0 mph 12.0 mph 76 % 0.00 in 492 W/m2
11:24 57.0 °F 49.2 °F 30.06 in NNW 7.0 mph 12.0 mph 75 % 0.00 in 508 W/m2
11:29 57.0 °F 49.2 °F 30.06 in North 7.0 mph 12.0 mph 75 % 0.00 in 218 W/m2
11:34 56.8 °F 49.0 °F 30.06 in North 7.0 mph 12.0 mph 75 % 0.00 in 236 W/m2
11:39 56.7 °F 48.8 °F 30.06 in NNW 7.0 mph 11.0 mph 75 % 0.00 in 204 W/m2
11:44 56.7 °F 48.8 °F 30.06 in NNW 6.0 mph 11.0 mph 75 % 0.00 in 292 W/m2
11:49 56.7 °F 48.5 °F 30.07 in North 5.0 mph 10.0 mph 74 % 0.00 in 420 W/m2
11:54 56.8 °F 49.0 °F 30.07 in North 5.0 mph 10.0 mph 75 % 0.00 in 220 W/m2
11:59 57.0 °F 49.2 °F 30.07 in NNW 5.0 mph 10.0 mph 75 % 0.00 in 362 W/m2
12:04 57.0 °F 48.8 °F 30.07 in NNW 5.0 mph 10.0 mph 74 % 0.00 in 390 W/m2
12:09 57.4 °F 49.2 °F 30.07 in NNW 4.0 mph 8.0 mph 74 % 0.00 in 239 W/m2
12:19 58.3 °F 49.7 °F 30.07 in NW 5.0 mph 10.0 mph 73 % 0.00 in 737 W/m2
12:24 58.8 °F 49.4 °F 30.07 in NW 6.0 mph 10.0 mph 71 % 0.00 in 738 W/m2
12:29 59.5 °F 50.1 °F 30.07 in NW 6.0 mph 10.0 mph 71 % 0.00 in 749 W/m2
12:34 59.9 °F 49.7 °F 30.07 in NNW 5.0 mph 11.0 mph 69 % 0.00 in 367 W/m2
12:39 60.1 °F 49.1 °F 30.07 in NW 5.0 mph 12.0 mph 67 % 0.00 in 216 W/m2
12:44 60.1 °F 49.5 °F 30.07 in NW 6.0 mph 12.0 mph 68 % 0.00 in 257 W/m2
12:49 59.9 °F 48.9 °F 30.07 in NNW 5.0 mph 10.0 mph 67 % 0.00 in 341 W/m2
12:54 59.5 °F 49.0 °F 30.06 in NNW 5.0 mph 10.0 mph 68 % 0.00 in 295 W/m2
12:59 59.5 °F 48.6 °F 30.06 in NNW 5.0 mph 10.0 mph 67 % 0.00 in 267 W/m2
13:04 59.7 °F 49.1 °F 30.06 in NW 5.0 mph 9.0 mph 68 % 0.00 in 211 W/m2
13:09 59.5 °F 48.6 °F 30.06 in NW 5.0 mph 10.0 mph 67 % 0.00 in 220 W/m2
13:14 59.4 °F 48.8 °F 30.06 in NW 5.0 mph 10.0 mph 68 % 0.00 in 267 W/m2
13:19 59.4 °F 48.4 °F 30.06 in NNW 4.0 mph 12.0 mph 67 % 0.00 in 264 W/m2
13:25 59.2 °F 48.2 °F 30.06 in North 4.0 mph 12.0 mph 67 % 0.00 in 311 W/m2
13:30 59.0 °F 48.1 °F 30.06 in NNE 5.0 mph 10.0 mph 67 % 0.00 in 232 W/m2
13:35 59.0 °F 47.7 °F 30.06 in NNE 4.0 mph 10.0 mph 66 % 0.00 in 135 W/m2
13:40 58.6 °F 47.7 °F 30.06 in NNE 4.0 mph 8.0 mph 67 % 0.00 in 67 W/m2
13:45 58.3 °F 47.4 °F 30.06 in North 5.0 mph 8.0 mph 67 % 0.00 in 54 W/m2
13:50 57.7 °F 46.0 °F 30.07 in North 6.0 mph 12.0 mph 65 % 0.00 in 49 W/m2
13:55 57.6 °F 47.5 °F 30.07 in North 7.0 mph 13.0 mph 69 % 0.00 in 53 W/m2
14:00 57.4 °F 49.2 °F 30.07 in NW 7.0 mph 13.0 mph 74 % 0.01 in 65 W/m2
14:05 56.8 °F 50.1 °F 30.07 in WNW 7.0 mph 10.0 mph 78 % 0.02 in 60 W/m2
14:10 56.1 °F 50.0 °F 30.07 in WNW 6.0 mph 10.0 mph 80 % 0.02 in 67 W/m2
14:15 55.6 °F 50.5 °F 30.07 in West 5.0 mph 8.0 mph 83 % 0.02 in 90 W/m2
14:20 55.2 °F 50.8 °F 30.07 in West 4.0 mph 7.0 mph 85 % 0.02 in 95 W/m2
14:25 54.9 °F 50.8 °F 30.07 in West 4.0 mph 7.0 mph 86 % 0.02 in 111 W/m2
14:30 54.9 °F 51.1 °F 30.07 in West 4.0 mph 7.0 mph 87 % 0.02 in 139 W/m2
14:35 54.7 °F 51.2 °F 30.07 in West 3.0 mph 6.0 mph 88 % 0.02 in 156 W/m2
14:40 54.7 °F 51.5 °F 30.07 in West 2.0 mph 5.0 mph 89 % 0.02 in 165 W/m2
14:45 54.9 °F 51.7 °F 30.07 in WNW 1.0 mph 6.0 mph 89 % 0.02 in 188 W/m2
14:50 54.9 °F 51.4 °F 30.07 in NW 2.0 mph 7.0 mph 88 % 0.02 in 176 W/m2
14:55 55.0 °F 51.2 °F 30.07 in NW 3.0 mph 8.0 mph 87 % 0.02 in 107 W/m2
15:00 55.0 °F 50.9 °F 30.07 in NW 3.0 mph 8.0 mph 86 % 0.02 in 65 W/m2
15:05 54.9 °F 50.1 °F 30.07 in NW 3.0 mph 7.0 mph 84 % 0.01 in 49 W/m2
15:10 54.9 °F 50.1 °F 30.07 in NW 5.0 mph 8.0 mph 84 % 0.01 in 53 W/m2
15:15 54.7 °F 50.3 °F 30.07 in NW 4.0 mph 8.0 mph 85 % 0.00 in 58 W/m2
15:17 54.7 °F 50.3 °F 30.07 in NW 4.0 mph 8.0 mph 85 % 0.00 in 60 W/m2
15:22 54.5 °F 50.1 °F 30.07 in WNW 3.0 mph 8.0 mph 85 % 0.00 in 67 W/m2
15:27 54.3 °F 50.2 °F 30.07 in WNW 3.0 mph 7.0 mph 86 % 0.00 in 69 W/m2
15:32 54.1 °F 50.4 °F 30.07 in West 4.0 mph 8.0 mph 87 % 0.00 in 63 W/m2
15:37 54.0 °F 50.5 °F 30.07 in West 5.0 mph 8.0 mph 88 % 0.00 in 72 W/m2
15:42 53.8 °F 50.3 °F 30.07 in West 4.0 mph 7.0 mph 88 % 0.00 in 74 W/m2
15:47 53.6 °F 50.4 °F 30.07 in West 4.0 mph 7.0 mph 89 % 0.00 in 70 W/m2
15:52 53.2 °F 50.1 °F 30.07 in West 5.0 mph 8.0 mph 89 % 0.01 in 70 W/m2
15:57 53.2 °F 50.1 °F 30.07 in West 5.0 mph 8.0 mph 89 % 0.01 in 62 W/m2
16:02 53.1 °F 50.2 °F 30.07 in West 5.0 mph 8.0 mph 90 % 0.01 in 51 W/m2
16:07 52.9 °F 50.0 °F 30.07 in West 4.0 mph 8.0 mph 90 % 0.02 in 51 W/m2
16:12 52.9 °F 50.3 °F 30.07 in West 3.0 mph 6.0 mph 91 % 0.02 in 74 W/m2
16:17 52.9 °F 50.3 °F 30.07 in West 3.0 mph 5.0 mph 91 % 0.02 in 109 W/m2
16:22 52.9 °F 50.6 °F 30.07 in West 3.0 mph 6.0 mph 92 % 0.02 in 114 W/m2
16:27 52.9 °F 50.6 °F 30.07 in West 3.0 mph 7.0 mph 92 % 0.02 in 104 W/m2
16:32 52.9 °F 50.6 °F 30.07 in West 3.0 mph 7.0 mph 92 % 0.02 in 109 W/m2
16:37 53.1 °F 50.8 °F 30.07 in WNW 3.0 mph 6.0 mph 92 % 0.02 in 105 W/m2
16:42 53.2 °F 51.0 °F 30.06 in WNW 2.0 mph 6.0 mph 92 % 0.02 in 91 W/m2
16:47 53.2 °F 51.0 °F 30.07 in WNW 3.0 mph 8.0 mph 92 % 0.02 in 88 W/m2
16:53 53.2 °F 51.0 °F 30.07 in WNW 4.0 mph 8.0 mph 92 % 0.01 in 77 W/m2
16:58 53.4 °F 51.2 °F 30.07 in WNW 4.0 mph 8.0 mph 92 % 0.01 in 76 W/m2
17:03 53.4 °F 50.9 °F 30.07 in WNW 3.0 mph 8.0 mph 91 % 0.01 in 70 W/m2
17:08 53.4 °F 51.2 °F 30.07 in WNW 2.0 mph 6.0 mph 92 % 0.00 in 65 W/m2
17:13 53.4 °F 51.2 °F 30.07 in WNW 3.0 mph 7.0 mph 92 % 0.00 in 60 W/m2
17:18 53.4 °F 50.9 °F 30.07 in WNW 3.0 mph 7.0 mph 91 % 0.00 in 53 W/m2
17:23 53.4 °F 50.9 °F 30.06 in WNW 2.0 mph 6.0 mph 91 % 0.00 in 54 W/m2
17:28 53.4 °F 50.9 °F 30.06 in WNW 1.0 mph 5.0 mph 91 % 0.00 in 54 W/m2
17:33 53.4 °F 50.9 °F 30.07 in WNW 1.0 mph 5.0 mph 91 % 0.00 in 53 W/m2
17:38 53.4 °F 50.9 °F 30.07 in NW 2.0 mph 7.0 mph 91 % 0.00 in 49 W/m2
17:43 53.4 °F 50.9 °F 30.07 in NW 3.0 mph 7.0 mph 91 % 0.00 in 39 W/m2
17:48 53.4 °F 50.9 °F 30.07 in NW 2.0 mph 5.0 mph 91 % 0.00 in 28 W/m2
17:49 53.4 °F 50.9 °F 30.07 in NW 2.0 mph 6.0 mph 91 % 0.00 in 26 W/m2
17:54 53.2 °F 50.7 °F 30.07 in NW 2.0 mph 6.0 mph 91 % 0.00 in 23 W/m2
17:59 53.2 °F 50.4 °F 30.07 in NNW 2.0 mph 7.0 mph 90 % 0.00 in 18 W/m2
18:04 53.1 °F 50.2 °F 30.07 in North 4.0 mph 9.0 mph 90 % 0.00 in 16 W/m2
18:09 52.9 °F 49.7 °F 30.07 in North 4.0 mph 9.0 mph 89 % 0.00 in 14 W/m2
18:14 52.7 °F 49.5 °F 30.07 in North 4.0 mph 9.0 mph 89 % 0.00 in 12 W/m2
18:19 52.3 °F 49.2 °F 30.07 in North 5.0 mph 9.0 mph 89 % 0.00 in 12 W/m2
18:24 52.3 °F 49.2 °F 30.07 in NNE 5.0 mph 8.0 mph 89 % 0.00 in 12 W/m2
18:29 52.2 °F 49.3 °F 30.07 in NNE 4.0 mph 8.0 mph 90 % 0.01 in 12 W/m2
18:34 52.2 °F 49.3 °F 30.08 in North 3.0 mph 7.0 mph 90 % 0.01 in 12 W/m2
18:39 52.0 °F 49.4 °F 30.08 in North 4.0 mph 8.0 mph 91 % 0.01 in 12 W/m2
18:44 51.8 °F 49.3 °F 30.08 in NNW 4.0 mph 8.0 mph 91 % 0.01 in 11 W/m2
18:49 51.6 °F 49.1 °F 30.08 in NNW 3.0 mph 8.0 mph 91 % 0.01 in 11 W/m2
18:54 51.6 °F 49.1 °F 30.08 in NW 2.0 mph 7.0 mph 91 % 0.01 in 9 W/m2
18:59 51.4 °F 48.9 °F 30.08 in NW 2.0 mph 6.0 mph 91 % 0.01 in 5 W/m2
19:04 51.4 °F 48.9 °F 30.08 in NW 3.0 mph 7.0 mph 91 % 0.02 in 0 W/m2
19:09 51.3 °F 48.7 °F 30.08 in NW 3.0 mph 7.0 mph 91 % 0.02 in 0 W/m2
19:14 51.3 °F 49.0 °F 30.08 in NW 3.0 mph 6.0 mph 92 % 0.02 in 0 W/m2
19:19 51.3 °F 49.0 °F 30.08 in NW 3.0 mph 6.0 mph 92 % 0.02 in 0 W/m2
19:25 51.1 °F 48.8 °F 30.09 in NW 2.0 mph 6.0 mph 92 % 0.01 in 0 W/m2
19:30 51.1 °F 48.8 °F 30.09 in NW 1.0 mph 5.0 mph 92 % 0.01 in 0 W/m2
19:35 51.1 °F 48.8 °F 30.09 in NW 2.0 mph 6.0 mph 92 % 0.02 in 0 W/m2
19:40 50.9 °F 48.9 °F 30.09 in NNW 3.0 mph 6.0 mph 93 % 0.02 in 0 W/m2
19:45 50.9 °F 48.9 °F 30.10 in NNW 3.0 mph 7.0 mph 93 % 0.02 in 0 W/m2
19:50 50.7 °F 48.8 °F 30.10 in NNW 2.0 mph 7.0 mph 93 % 0.02 in 0 W/m2
19:55 50.7 °F 48.8 °F 30.10 in NNW 1.0 mph 7.0 mph 93 % 0.02 in 0 W/m2
20:01 50.7 °F 48.8 °F 30.10 in NNW 1.0 mph 5.0 mph 93 % 0.02 in 0 W/m2
20:03 50.7 °F 48.8 °F 30.10 in NW 2.0 mph 5.0 mph 93 % 0.02 in 0 W/m2
20:06 50.7 °F 48.8 °F 30.10 in NW 3.0 mph 6.0 mph 93 % 0.02 in 0 W/m2
20:11 50.7 °F 48.8 °F 30.10 in NW 2.0 mph 6.0 mph 93 % 0.02 in 0 W/m2
20:13 50.7 °F 48.8 °F 30.10 in NW 2.0 mph 6.0 mph 93 % 0.02 in 0 W/m2
20:16 50.7 °F 48.8 °F 30.10 in NW 1.0 mph 5.0 mph 93 % 0.02 in 0 W/m2
20:18 50.7 °F 48.8 °F 30.10 in NNW 2.0 mph 8.0 mph 93 % 0.02 in 0 W/m2
20:20 50.7 °F 49.1 °F 30.10 in NNW 2.0 mph 8.0 mph 94 % 0.02 in 0 W/m2
20:21 50.7 °F 49.1 °F 30.10 in NNW 2.0 mph 8.0 mph 94 % 0.02 in 0 W/m2
20:25 50.7 °F 49.1 °F 30.10 in NNW 2.0 mph 8.0 mph 94 % 0.02 in 0 W/m2
20:27 50.7 °F 49.1 °F 30.11 in NNW 1.0 mph 7.0 mph 94 % 0.02 in 0 W/m2
20:29 50.7 °F 49.1 °F 30.11 in NNW 1.0 mph 5.0 mph 94 % 0.02 in 0 W/m2
20:30 50.7 °F 49.1 °F 30.11 in NNW 1.0 mph 5.0 mph 94 % 0.02 in 0 W/m2
20:35 50.5 °F 48.9 °F 30.10 in NW 1.0 mph 4.0 mph 94 % 0.02 in 0 W/m2
20:39 50.7 °F 49.1 °F 30.11 in NW 1.0 mph 4.0 mph 94 % 0.02 in 0 W/m2
20:40 50.5 °F 48.9 °F 30.11 in NW 1.0 mph 4.0 mph 94 % 0.02 in 0 W/m2
20:45 50.5 °F 48.9 °F 30.11 in Calm   4.0 mph 94 % 0.02 in 0 W/m2
20:46 50.5 °F 48.9 °F 30.11 in Calm   4.0 mph 94 % 0.02 in 0 W/m2
20:52 50.5 °F 48.9 °F 30.11 in Calm   2.0 mph 94 % 0.02 in 0 W/m2
20:57 50.5 °F 48.9 °F 30.11 in Calm   2.0 mph 94 % 0.02 in 0 W/m2
20:58 50.5 °F 48.9 °F 30.11 in NNW 1.0 mph 6.0 mph 94 % 0.02 in 0 W/m2
21:01 50.5 °F 48.9 °F 30.11 in NNW 1.0 mph 6.0 mph 94 % 0.02 in 0 W/m2
21:04 50.4 °F 48.7 °F 30.11 in NNW 2.0 mph 7.0 mph 94 % 0.02 in 0 W/m2
21:06 50.4 °F 48.7 °F 30.11 in NNW 2.0 mph 7.0 mph 94 % 0.02 in 0 W/m2
21:08 50.4 °F 48.7 °F 30.11 in NNW 2.0 mph 7.0 mph 94 % 0.02 in 0 W/m2
21:13 50.4 °F 48.7 °F 30.11 in Calm   2.0 mph 94 % 0.02 in 0 W/m2
21:18 50.4 °F 48.7 °F 30.11 in Calm     94 % 0.02 in 0 W/m2
21:28 50.4 °F 48.7 °F 30.11 in NNW 1.0 mph 6.0 mph 94 % 0.04 in 0 W/m2
21:30 50.2 °F 48.5 °F 30.11 in NNW 2.0 mph 6.0 mph 94 % 0.04 in 0 W/m2
21:36 49.8 °F 48.2 °F 30.11 in NNE 3.0 mph 8.0 mph 94 % 0.03 in 0 W/m2
21:37 49.6 °F 47.7 °F 30.11 in NNE 4.0 mph 8.0 mph 93 % 0.03 in 0 W/m2
21:42 49.5 °F 47.8 °F 30.11 in NNE 3.0 mph 8.0 mph 94 % 0.03 in 0 W/m2
21:47 49.5 °F 47.8 °F 30.11 in North 1.0 mph 5.0 mph 94 % 0.03 in 0 W/m2
21:49 49.5 °F 47.8 °F 30.11 in North 1.0 mph 5.0 mph 94 % 0.03 in 0 W/m2
21:50 49.5 °F 47.8 °F 30.11 in North 1.0 mph 5.0 mph 94 % 0.03 in 0 W/m2
21:53 49.3 °F 47.6 °F 30.11 in NNW 1.0 mph 5.0 mph 94 % 0.03 in 0 W/m2
21:54 49.3 °F 47.6 °F 30.11 in NNW 1.0 mph 5.0 mph 94 % 0.03 in 0 W/m2
21:56 49.3 °F 47.6 °F 30.11 in NNW 1.0 mph 5.0 mph 94 % 0.03 in 0 W/m2
22:01 49.3 °F 47.6 °F 30.10 in Calm   4.0 mph 94 % 0.02 in 0 W/m2
22:06 49.1 °F 47.4 °F 30.10 in Calm   4.0 mph 94 % 0.02 in 0 W/m2
22:11 48.9 °F 47.3 °F 30.11 in Calm   1.0 mph 94 % 0.02 in 0 W/m2
22:16 48.9 °F 47.3 °F 30.11 in Calm   4.0 mph 94 % 0.02 in 0 W/m2
22:21 48.9 °F 47.3 °F 30.11 in Calm   4.0 mph 94 % 0.01 in 0 W/m2
22:26 48.7 °F 47.1 °F 30.11 in Calm   1.0 mph 94 % 0.01 in 0 W/m2
22:31 48.7 °F 47.1 °F 30.11 in Calm   1.0 mph 94 % 0.00 in 0 W/m2
22:36 48.7 °F 47.1 °F 30.11 in Calm   1.0 mph 94 % 0.00 in 0 W/m2
22:41 48.6 °F 46.9 °F 30.11 in Calm   2.0 mph 94 % 0.00 in 0 W/m2
22:46 48.4 °F 46.7 °F 30.11 in Calm   2.0 mph 94 % 0.00 in 0 W/m2
22:51 48.4 °F 46.7 °F 30.11 in Calm   4.0 mph 94 % 0.00 in 0 W/m2
22:56 48.4 °F 46.7 °F 30.11 in NNE 1.0 mph 5.0 mph 94 % 0.00 in 0 W/m2
23:01 48.2 °F 46.6 °F 30.11 in NW 2.0 mph 5.0 mph 94 % 0.00 in 0 W/m2
23:06 48.2 °F 46.6 °F 30.11 in NW 1.0 mph 5.0 mph 94 % 0.00 in 0 W/m2
23:11 48.0 °F 46.7 °F 30.11 in NW 2.0 mph 5.0 mph 95 % 0.00 in 0 W/m2
23:16 48.0 °F 46.7 °F 30.11 in NW 3.0 mph 5.0 mph 95 % 0.00 in 0 W/m2
23:21 48.0 °F 46.7 °F 30.12 in NW 2.0 mph 6.0 mph 95 % 0.00 in 0 W/m2
23:26 48.0 °F 46.7 °F 30.12 in NW 1.0 mph 6.0 mph 95 % 0.00 in 0 W/m2
23:31 47.8 °F 46.5 °F 30.12 in NW 1.0 mph 3.0 mph 95 % 0.00 in 0 W/m2
23:36 47.8 °F 46.5 °F 30.12 in NW 1.0 mph 2.0 mph 95 % 0.00 in 0 W/m2
23:41 47.7 °F 46.3 °F 30.12 in Calm   3.0 mph 95 % 0.00 in 0 W/m2
23:46 47.5 °F 46.1 °F 30.11 in Calm   3.0 mph 95 % 0.00 in 0 W/m2
23:52 47.3 °F 45.9 °F 30.11 in Calm   1.0 mph 95 % 0.00 in 0 W/m2
23:57 47.1 °F 45.8 °F 30.12 in Calm   1.0 mph 95 % 0.00 in 0 W/m2
Delerius-Weather
Compliments of Weather Underground - 2.5 mb

Data updates at regular intervals.